Terminal Aerodrome Forecast
Issued by NWS Spokane, WA

Current Version | Previous Version | Text Only | Print | Product List | Glossary On
Versions: 1 2 3 4 5 6 7 8 9 10 11 12 13 14 15 16 17 18 19
000
FTUS46 KOTX 212325
TAFLWS
TAF
KLWS 212325Z 2200/2224 VRB04KT P6SM SCT060 OVC200
     FM220200 16004KT P6SM SCT100 OVC150
     FM220900 36005KT P6SM VCSH SCT030 OVC060=

USA.gov is the U.S. government's official web portal to all federal, state and local government web resources and services.